Impacts METAR Board INFO
IDs:

KCLE - Cleveland/Hopkins In, OH, US

Updated at: 0345 UTC 20 Feb 2018
Potential Impact None Slight Moderate High
Time19/15Z 19/16Z 19/17Z 19/18Z 19/19Z 19/20Z 19/21Z 19/22Z 19/23Z 20/00Z 20/01Z 20/02Z 20/03Z
VIS10 10 1.5 9 8 8 7 9 10 10 10 10 10
CIG21 20 30 36 9 90 90 60 100 100 200 250 95
CoverOVCOVCOVCOVCOVCOVCOVCOVCOVCOVCOVCBKNOVC
FltCatMVFRMVFRIFRVFRIFRVFRVFRVFRVFRVFRVFRVFRVFR
WX-RA-RA-RA BR-RA-RA-RA-RA-RA-RA--------
WDir180180190190190180190190190180200200190
WSpd13 12 9 9 14 11 15 12 13 10 15 15 13
WGst18 -- -- -- 19 -- 25 -- 18 -- 22 22 21
Raw hourly METARs
KCLE 191451Z 18013G18KT 10SM -RA FEW016 OVC021 08/07 A3009 RMK AO2 SLP194 P0003 60027 T00830067 53002
KCLE 191551Z 18012KT 10SM -RA OVC020 09/07 A3008 RMK AO2 RAE1457B50 SLP191 P0001 T00890072
KCLE 191651Z 19009KT 1 1/2SM -RA BR SCT022 BKN030 OVC065 09/08 A3010 RMK AO2 SFC VIS 5 RAE02B19 SLP198 P0006 T00940083
KCLE 191751Z 19009KT 9SM -RA BKN036 OVC055 11/10 A3008 RMK AO2 RAE30B46 SLP189 P0006 60040 T01110100 10111 20056 58004
KCLE 191858Z 19014G19KT 8SM -RA BKN009 BKN036 OVC075 12/10 A3005 RMK AO2 P0000 T01170100
KCLE 191951Z 18011KT 8SM -RA FEW009 SCT047 OVC090 13/11 A3004 RMK AO2 SLP175 P0002 T01280111
KCLE 192051Z 19015G25KT 7SM -RA FEW075 OVC090 14/13 A3003 RMK AO2 SLP172 P0008 60016 T01440128 56016
KCLE 192151Z 19012KT 9SM -RA FEW020 OVC060 14/13 A3004 RMK AO2 SLP173 P0006 T01440133
KCLE 192251Z 19013G18KT 10SM -RA FEW060 FEW080 OVC100 16/13 A3003 RMK AO2 SLP170 P0002 T01560133
KCLE 192351Z 18010KT 10SM FEW085 BKN100 OVC140 16/13 A3004 RMK AO2 RAE46 SLP173 P0001 60025 T01560133 10167 20111 52002
KCLE 200051Z 20015G22KT 10SM FEW080 SCT120 OVC200 17/14 A3002 RMK AO2 PK WND 19027/0041 SLP166 T01720139
KCLE 200151Z 20015G22KT 10SM FEW130 SCT200 BKN250 18/14 A3004 RMK AO2 SLP172 T01780139
KCLE 200251Z 19013G21KT 10SM BKN095 OVC150 18/13 A3004 RMK AO2 SLP171 T01830133 53000